フィレンツェ の空港の天気 - METARとTAF

フィレンツェ・ペレトラ空港 ( LIRQ / FLR ) - イタリア フィレンツェ
飛行場実況気象(Metar)
観測時間08/16 08:20 CEST (08/16 06:20 UTC)
風向・風速不定 1m/s
視程10km以上
天気現象
なし
気温26℃
湿度54%
気圧1015hPa
METARLIRQ 160620Z VRB02KT CAVOK 26/16 Q1015
過去の天気等 Google飛行場航空写真 Wunderground天気予報

過去48時間のMETAR

飛行場予報(TAF)
発表時間: 8/16 07:00 CEST (8/16 05:00 UTC)
予報対象時間: 16日8時 CEST ~ 17日8時 CEST
風向・風速不定 3m/s
視程10km以上
なし
16日9時 CEST ~ 16日11時 CEST に徐々に
風向・風速北東 5m/s
16日18時 CEST ~ 16日20時 CEST に徐々に
風向・風速不定 3m/s
TAF LIRQ 160500Z 1606/1706 VRB06KT CAVOK
BECMG 1607/1609 04010KT
BECMG 1616/1618 VRB05KT